createdAt,value
2023-05-23T00:00:15.169Z,857.00
2023-05-23T00:01:16.161Z,857.00
2023-05-23T00:02:16.318Z,859.00
2023-05-23T00:03:16.404Z,860.00
2023-05-23T00:04:16.206Z,859.00
2023-05-23T00:05:15.142Z,859.00
2023-05-23T00:06:16.143Z,861.00
2023-05-23T00:07:15.171Z,862.00
2023-05-23T00:08:15.253Z,863.00
2023-05-23T00:09:16.299Z,862.00
2023-05-23T00:10:15.370Z,860.00
2023-05-23T00:11:16.420Z,858.00
2023-05-23T00:12:16.496Z,856.00
2023-05-23T00:13:15.529Z,856.00
2023-05-23T00:14:15.583Z,855.00
2023-05-23T00:15:16.619Z,857.00
2023-05-23T00:16:16.698Z,856.00
2023-05-23T00:17:16.753Z,853.00
2023-05-23T00:18:16.951Z,854.00
2023-05-23T00:19:15.916Z,855.00
2023-05-23T00:20:15.951Z,855.00
2023-05-23T00:21:16.027Z,853.00
2023-05-23T00:22:16.057Z,855.00
2023-05-23T00:23:16.132Z,854.00
2023-05-23T00:24:17.149Z,856.00
2023-05-23T00:25:17.221Z,850.00
2023-05-23T00:26:16.274Z,848.00
2023-05-23T00:27:17.334Z,848.00
2023-05-23T00:28:16.374Z,847.00
2023-05-23T00:29:17.433Z,849.00
2023-05-23T00:30:16.443Z,848.00
2023-05-23T00:31:16.548Z,845.00
2023-05-23T00:32:17.538Z,844.00
2023-05-23T00:33:17.605Z,848.00
2023-05-23T00:34:18.054Z,846.00
2023-05-23T00:35:16.650Z,846.00
2023-05-23T00:36:17.707Z,848.00
2023-05-23T00:37:16.776Z,850.00
2023-05-23T00:38:17.844Z,850.00
2023-05-23T00:39:17.924Z,851.00
2023-05-23T00:40:17.968Z,851.00
2023-05-23T00:41:18.020Z,854.00
2023-05-23T00:42:18.080Z,855.00
2023-05-23T00:43:17.134Z,853.00
2023-05-23T00:44:18.223Z,853.00
2023-05-23T00:45:18.250Z,852.00
2023-05-23T00:46:18.338Z,852.00
2023-05-23T00:47:18.383Z,853.00
2023-05-23T00:48:18.417Z,852.00
2023-05-23T00:49:18.483Z,852.00
2023-05-23T00:50:17.670Z,850.00
2023-05-23T00:51:18.592Z,851.00
2023-05-23T00:52:18.650Z,851.00
2023-05-23T00:53:18.721Z,852.00
2023-05-23T00:54:17.752Z,851.00
2023-05-23T00:55:17.786Z,853.00
2023-05-23T00:56:18.824Z,853.00
2023-05-23T00:57:17.884Z,852.00
2023-05-23T00:58:18.922Z,853.00
2023-05-23T00:59:18.975Z,850.00
2023-05-23T01:00:19.036Z,849.00
2023-05-23T01:01:18.118Z,846.00
2023-05-23T01:02:19.174Z,846.00
2023-05-23T01:03:19.237Z,848.00
2023-05-23T01:04:19.256Z,849.00
2023-05-23T01:05:19.443Z,853.00
2023-05-23T01:06:18.340Z,854.00
2023-05-23T01:07:19.381Z,853.00
2023-05-23T01:08:18.454Z,851.00
2023-05-23T01:09:18.491Z,848.00
2023-05-23T01:10:19.545Z,848.00
2023-05-23T01:11:19.581Z,847.00
2023-05-23T01:12:18.653Z,846.00
2023-05-23T01:13:18.681Z,845.00
2023-05-23T01:14:19.706Z,845.00
2023-05-23T01:15:18.759Z,845.00
2023-05-23T01:16:19.903Z,843.00
2023-05-23T01:17:19.902Z,843.00
2023-05-23T01:18:19.930Z,846.00
2023-05-23T01:19:19.041Z,846.00
2023-05-23T01:20:20.048Z,845.00
2023-05-23T01:21:20.205Z,847.00
2023-05-23T01:22:19.138Z,849.00
2023-05-23T01:23:19.187Z,849.00
2023-05-23T01:24:19.232Z,846.00
2023-05-23T01:25:20.269Z,847.00
2023-05-23T01:26:20.351Z,844.00
2023-05-23T01:27:19.395Z,844.00
2023-05-23T01:28:20.430Z,844.00
2023-05-23T01:29:20.472Z,845.00
2023-05-23T01:30:20.509Z,845.00
2023-05-23T01:31:19.590Z,844.00
2023-05-23T01:32:20.553Z,848.00
2023-05-23T01:33:19.615Z,846.00
2023-05-23T01:34:20.709Z,846.00
2023-05-23T01:35:20.709Z,846.00
2023-05-23T01:36:19.773Z,845.00
2023-05-23T01:37:19.961Z,844.00
2023-05-23T01:38:20.859Z,843.00
2023-05-23T01:39:20.918Z,842.00
2023-05-23T01:40:20.974Z,844.00
2023-05-23T01:41:20.022Z,846.00
2023-05-23T01:42:20.069Z,846.00
2023-05-23T01:43:21.132Z,845.00
2023-05-23T01:44:21.250Z,845.00
2023-05-23T01:45:21.079Z,843.00
2023-05-23T01:46:21.188Z,841.00
2023-05-23T01:47:21.159Z,842.00
2023-05-23T01:48:20.224Z,842.00
2023-05-23T01:49:20.226Z,846.00
2023-05-23T01:50:21.253Z,845.00
2023-05-23T01:51:20.289Z,844.00
2023-05-23T01:52:20.352Z,845.00
2023-05-23T01:53:20.490Z,847.00
2023-05-23T01:54:20.403Z,846.00
2023-05-23T01:55:21.423Z,845.00
2023-05-23T01:56:20.465Z,842.00
2023-05-23T01:57:21.530Z,840.00
2023-05-23T01:58:20.515Z,841.00
2023-05-23T01:59:20.534Z,842.00
2023-05-23T02:00:20.565Z,840.00
2023-05-23T02:01:21.610Z,838.00
2023-05-23T02:02:20.660Z,837.00
2023-05-23T02:03:20.714Z,836.00
2023-05-23T02:04:20.538Z,835.00
2023-05-23T02:05:20.542Z,834.00
2023-05-23T02:06:21.557Z,831.00
2023-05-23T02:07:21.565Z,831.00
2023-05-23T02:08:21.548Z,831.00
2023-05-23T02:09:21.668Z,834.00
2023-05-23T02:10:21.589Z,835.00
2023-05-23T02:11:21.600Z,836.00
2023-05-23T02:12:21.598Z,841.00
2023-05-23T02:13:20.623Z,841.00
2023-05-23T02:14:21.624Z,843.00
2023-05-23T02:15:20.657Z,841.00
2023-05-23T02:16:20.724Z,842.00
2023-05-23T02:17:20.725Z,842.00
2023-05-23T02:18:21.742Z,844.00
2023-05-23T02:19:21.860Z,845.00
2023-05-23T02:20:20.835Z,845.00
2023-05-23T02:21:20.869Z,844.00
2023-05-23T02:22:20.957Z,843.00
2023-05-23T02:23:20.925Z,844.00
2023-05-23T02:24:21.953Z,846.00
2023-05-23T02:25:22.102Z,844.00
2023-05-23T02:26:21.009Z,844.00
2023-05-23T02:27:21.044Z,843.00
2023-05-23T02:28:21.145Z,841.00
2023-05-23T02:29:21.054Z,840.00
2023-05-23T02:30:22.087Z,840.00
2023-05-23T02:31:22.177Z,839.00
2023-05-23T02:32:22.150Z,839.00
2023-05-23T02:33:22.169Z,840.00
2023-05-23T02:34:21.176Z,838.00
2023-05-23T02:35:21.192Z,837.00
2023-05-23T02:36:22.190Z,837.00
2023-05-23T02:37:22.227Z,837.00
2023-05-23T02:38:22.272Z,835.00
2023-05-23T02:39:21.256Z,835.00
2023-05-23T02:40:22.261Z,837.00
2023-05-23T02:41:21.375Z,837.00
2023-05-23T02:42:22.267Z,834.00
2023-05-23T02:43:21.267Z,835.00
2023-05-23T02:44:21.266Z,836.00
2023-05-23T02:45:22.272Z,835.00
2023-05-23T02:46:22.288Z,834.00
2023-05-23T02:47:22.325Z,835.00
2023-05-23T02:48:22.256Z,835.00
2023-05-23T02:49:22.266Z,835.00
2023-05-23T02:50:22.260Z,839.00
2023-05-23T02:51:22.268Z,842.00
2023-05-23T02:52:21.257Z,841.00
2023-05-23T02:53:22.247Z,841.00
2023-05-23T02:54:22.229Z,840.00
2023-05-23T02:55:22.239Z,839.00
2023-05-23T02:56:22.334Z,837.00
2023-05-23T02:57:22.358Z,834.00
2023-05-23T02:58:22.273Z,834.00
2023-05-23T02:59:22.236Z,833.00
2023-05-23T03:00:21.267Z,832.00
2023-05-23T03:01:21.247Z,833.00
2023-05-23T03:02:21.239Z,835.00
2023-05-23T03:03:22.271Z,832.00
2023-05-23T03:04:22.245Z,833.00
2023-05-23T03:05:22.216Z,832.00
2023-05-23T03:06:21.227Z,830.00
2023-05-23T03:07:28.168Z,827.00
2023-05-23T03:08:22.205Z,829.00
2023-05-23T03:09:21.196Z,828.00
2023-05-23T03:10:22.182Z,828.00
2023-05-23T03:11:22.189Z,830.00
2023-05-23T03:12:21.171Z,830.00
2023-05-23T03:13:21.327Z,830.00
2023-05-23T03:14:21.163Z,832.00
2023-05-23T03:15:22.155Z,833.00
2023-05-23T03:16:22.203Z,832.00
2023-05-23T03:17:22.190Z,831.00
2023-05-23T03:18:22.135Z,830.00
2023-05-23T03:19:22.165Z,831.00
2023-05-23T03:20:21.120Z,830.00
2023-05-23T03:21:22.106Z,830.00
2023-05-23T03:22:21.109Z,832.00
2023-05-23T03:23:21.105Z,832.00
2023-05-23T03:24:21.172Z,832.00
2023-05-23T03:25:22.122Z,830.00
2023-05-23T03:26:22.076Z,831.00
2023-05-23T03:27:21.070Z,828.00
2023-05-23T03:28:21.071Z,826.00
2023-05-23T03:29:22.185Z,826.00
2023-05-23T03:30:21.054Z,825.00
2023-05-23T03:31:22.072Z,825.00
2023-05-23T03:32:22.052Z,827.00
2023-05-23T03:33:22.027Z,826.00
2023-05-23T03:34:21.023Z,827.00
2023-05-23T03:35:21.020Z,825.00
2023-05-23T03:36:22.022Z,826.00
2023-05-23T03:37:22.035Z,825.00
2023-05-23T03:38:22.010Z,825.00
2023-05-23T03:39:21.993Z,825.00
2023-05-23T03:40:20.988Z,823.00
2023-05-23T03:41:21.981Z,824.00
2023-05-23T03:42:22.001Z,825.00
2023-05-23T03:43:20.993Z,825.00
2023-05-23T03:44:21.963Z,826.00
2023-05-23T03:45:22.093Z,826.00
2023-05-23T03:46:21.031Z,827.00
2023-05-23T03:47:20.948Z,827.00
2023-05-23T03:48:20.964Z,829.00
2023-05-23T03:49:21.928Z,829.00
2023-05-23T03:50:20.924Z,826.00
2023-05-23T03:51:21.930Z,828.00
2023-05-23T03:52:21.919Z,831.00
2023-05-23T03:53:21.905Z,830.00
2023-05-23T03:54:21.895Z,830.00
2023-05-23T03:55:21.891Z,833.00
2023-05-23T03:56:20.893Z,834.00
2023-05-23T03:57:20.877Z,836.00
2023-05-23T03:58:20.869Z,839.00
2023-05-23T03:59:20.878Z,838.00
2023-05-23T04:00:20.861Z,838.00
2023-05-23T04:01:20.982Z,835.00
2023-05-23T04:02:21.965Z,832.00
2023-05-23T04:03:21.985Z,829.00
2023-05-23T04:04:21.914Z,828.00
2023-05-23T04:05:20.830Z,829.00
2023-05-23T04:06:21.829Z,829.00
2023-05-23T04:07:21.095Z,828.00
2023-05-23T04:08:21.813Z,828.00
2023-05-23T04:09:21.800Z,827.00
2023-05-23T04:10:20.825Z,827.00
2023-05-23T04:11:20.799Z,825.00
2023-05-23T04:12:21.781Z,825.00
2023-05-23T04:13:21.776Z,826.00
2023-05-23T04:14:21.767Z,828.00
2023-05-23T04:15:21.840Z,829.00
2023-05-23T04:16:20.765Z,829.00
2023-05-23T04:17:21.975Z,831.00
2023-05-23T04:18:20.745Z,829.00
2023-05-23T04:19:20.735Z,828.00
2023-05-23T04:20:20.721Z,827.00
2023-05-23T04:21:21.734Z,826.00
2023-05-23T04:22:21.737Z,824.00
2023-05-23T04:23:20.745Z,827.00
2023-05-23T04:24:21.724Z,825.00
2023-05-23T04:25:20.698Z,824.00
2023-05-23T04:26:20.684Z,824.00
2023-05-23T04:27:20.704Z,829.00
2023-05-23T04:28:20.689Z,831.00
2023-05-23T04:29:21.692Z,834.00
2023-05-23T04:30:20.669Z,833.00
2023-05-23T04:31:20.722Z,830.00
2023-05-23T04:32:21.680Z,829.00
2023-05-23T04:33:20.784Z,831.00
2023-05-23T04:34:21.652Z,831.00
2023-05-23T04:35:21.644Z,831.00
2023-05-23T04:36:21.634Z,829.00
2023-05-23T04:37:21.631Z,829.00
2023-05-23T04:38:21.625Z,829.00
2023-05-23T04:39:20.603Z,825.00
2023-05-23T04:40:20.598Z,824.00
2023-05-23T04:41:21.623Z,823.00
2023-05-23T04:42:21.586Z,823.00
2023-05-23T04:43:21.594Z,825.00
2023-05-23T04:44:20.573Z,826.00
2023-05-23T04:45:21.569Z,825.00
2023-05-23T04:46:20.631Z,824.00
2023-05-23T04:47:20.551Z,825.00
2023-05-23T04:48:21.576Z,825.00
2023-05-23T04:49:20.681Z,823.00
2023-05-23T04:50:21.540Z,824.00
2023-05-23T04:51:21.539Z,823.00
2023-05-23T04:52:21.533Z,823.00
2023-05-23T04:53:21.511Z,821.00
2023-05-23T04:54:20.517Z,823.00
2023-05-23T04:55:21.527Z,821.00
2023-05-23T04:56:22.075Z,820.00
2023-05-23T04:57:21.500Z,820.00
2023-05-23T04:58:21.502Z,820.00
2023-05-23T04:59:21.491Z,820.00
2023-05-23T05:00:21.515Z,820.00
2023-05-23T05:01:22.244Z,821.00
2023-05-23T05:02:22.082Z,820.00
2023-05-23T05:03:20.461Z,819.00
2023-05-23T05:04:20.492Z,821.00
2023-05-23T05:05:21.577Z,823.00
2023-05-23T05:06:21.482Z,826.00
2023-05-23T05:07:20.438Z,824.00
2023-05-23T05:08:21.435Z,823.00
2023-05-23T05:09:21.416Z,820.00
2023-05-23T05:10:21.411Z,820.00
2023-05-23T05:11:21.398Z,818.00
2023-05-23T05:12:20.420Z,820.00
2023-05-23T05:13:20.398Z,819.00
2023-05-23T05:14:20.387Z,820.00
2023-05-23T05:15:20.384Z,821.00
2023-05-23T05:16:20.457Z,819.00
2023-05-23T05:17:21.421Z,817.00
2023-05-23T05:18:21.353Z,820.00
2023-05-23T05:19:20.360Z,822.00
2023-05-23T05:20:21.385Z,823.00
2023-05-23T05:21:21.480Z,825.00
2023-05-23T05:22:20.337Z,822.00
2023-05-23T05:23:20.301Z,822.00
2023-05-23T05:24:21.304Z,819.00
2023-05-23T05:25:20.304Z,813.00
2023-05-23T05:26:21.307Z,810.00
2023-05-23T05:27:21.295Z,807.00
2023-05-23T05:28:21.282Z,805.00
2023-05-23T05:29:21.314Z,801.00
2023-05-23T05:30:21.284Z,799.00
2023-05-23T05:31:21.281Z,802.00
2023-05-23T05:32:20.337Z,804.00
2023-05-23T05:33:20.266Z,801.00
2023-05-23T05:34:21.235Z,794.00
2023-05-23T05:35:21.256Z,799.00
2023-05-23T05:36:21.235Z,800.00
2023-05-23T05:37:21.399Z,804.00
2023-05-23T05:38:21.251Z,804.00
2023-05-23T05:39:21.224Z,808.00
2023-05-23T05:40:21.242Z,810.00
2023-05-23T05:41:21.265Z,813.00
2023-05-23T05:42:21.205Z,818.00
2023-05-23T05:43:21.190Z,827.00
2023-05-23T05:44:20.271Z,829.00
2023-05-23T05:45:21.324Z,877.00
2023-05-23T05:46:21.369Z,892.00
2023-05-23T05:47:21.174Z,886.00
2023-05-23T05:48:20.156Z,886.00
2023-05-23T05:49:21.149Z,882.00
2023-05-23T05:50:21.149Z,890.00
2023-05-23T05:51:21.155Z,967.00
2023-05-23T05:52:21.150Z,944.00
2023-05-23T05:53:21.245Z,932.00
2023-05-23T05:54:21.161Z,934.00
2023-05-23T05:55:21.130Z,939.00
2023-05-23T05:56:21.135Z,999.00
2023-05-23T05:57:21.137Z,998.00
2023-05-23T05:58:21.141Z,1008.00
2023-05-23T05:59:21.225Z,1029.00
2023-05-23T06:00:21.088Z,1056.00
2023-05-23T06:01:21.105Z,1070.00
2023-05-23T06:02:20.693Z,1109.00
2023-05-23T06:03:21.147Z,1156.00
2023-05-23T06:04:21.137Z,1181.00
2023-05-23T06:05:21.054Z,1192.00
2023-05-23T06:06:21.051Z,1206.00
2023-05-23T06:07:21.094Z,1230.00
2023-05-23T06:08:20.328Z,1269.00
2023-05-23T06:09:20.397Z,1286.00
2023-05-23T06:10:20.472Z,1337.00
2023-05-23T06:11:20.254Z,1348.00
2023-05-23T06:12:21.317Z,1358.00
2023-05-23T06:13:21.299Z,1366.00
2023-05-23T06:14:21.419Z,1411.00
2023-05-23T06:15:21.552Z,1423.00
2023-05-23T06:16:20.681Z,1450.00
2023-05-23T06:17:21.853Z,1462.00
2023-05-23T06:18:21.645Z,1478.00
2023-05-23T06:19:21.663Z,1559.00
2023-05-23T06:20:21.574Z,1553.00
2023-05-23T06:21:20.532Z,1553.00
2023-05-23T06:22:21.577Z,1562.00
2023-05-23T06:23:21.549Z,1598.00
2023-05-23T06:24:20.659Z,1611.00
2023-05-23T06:25:21.648Z,1631.00
2023-05-23T06:26:21.572Z,1647.00
2023-05-23T06:27:27.502Z,1655.00
2023-05-23T06:28:20.459Z,1684.00
2023-05-23T06:29:21.449Z,1701.00
2023-05-23T06:30:21.462Z,1717.00
2023-05-23T06:31:21.469Z,1740.00
2023-05-23T06:32:21.481Z,1778.00
2023-05-23T06:33:21.433Z,1808.00
2023-05-23T06:34:21.425Z,1827.00
2023-05-23T06:35:20.409Z,1838.00
2023-05-23T06:36:21.419Z,1864.00
2023-05-23T06:37:21.473Z,1884.00
2023-05-23T06:38:21.401Z,1893.00
2023-05-23T06:39:20.380Z,1904.00
2023-05-23T06:40:20.394Z,1934.00
2023-05-23T06:41:20.513Z,1962.00
2023-05-23T06:42:21.371Z,1972.00
2023-05-23T06:43:21.369Z,1983.00
2023-05-23T06:44:20.365Z,2019.00
2023-05-23T06:45:21.359Z,2054.00
2023-05-23T06:46:21.390Z,2052.00
2023-05-23T06:47:21.370Z,2066.00
2023-05-23T06:48:21.320Z,2075.00
2023-05-23T06:49:21.312Z,2096.00
2023-05-23T06:50:21.321Z,2118.00
2023-05-23T06:51:21.368Z,2099.00
2023-05-23T06:52:20.291Z,2098.00
2023-05-23T06:53:21.562Z,2086.00
2023-05-23T06:54:21.283Z,2120.00
2023-05-23T06:55:21.369Z,2225.00
2023-05-23T06:56:21.413Z,2228.00
2023-05-23T06:57:20.584Z,2219.00
2023-05-23T06:58:20.574Z,2217.00
2023-05-23T06:59:21.578Z,2218.00
2023-05-23T07:00:20.626Z,2216.00
2023-05-23T07:01:21.670Z,2218.00
2023-05-23T07:02:20.714Z,2219.00
2023-05-23T07:03:21.666Z,2217.00
2023-05-23T07:04:21.646Z,2217.00
2023-05-23T07:05:21.700Z,2213.00
2023-05-23T07:06:20.690Z,2210.00
2023-05-23T07:07:20.649Z,2206.00
2023-05-23T07:08:20.661Z,2204.00
2023-05-23T07:09:21.671Z,2202.00
2023-05-23T07:10:21.677Z,2201.00
2023-05-23T07:11:20.697Z,2200.00
2023-05-23T07:12:20.706Z,2196.00
2023-05-23T07:13:21.823Z,2191.00
2023-05-23T07:14:21.693Z,2191.00
2023-05-23T07:15:20.714Z,2188.00
2023-05-23T07:16:20.762Z,2184.00
2023-05-23T07:17:20.835Z,2187.00
2023-05-23T07:18:21.738Z,2183.00
2023-05-23T07:19:20.784Z,2182.00
2023-05-23T07:20:20.757Z,2181.00
2023-05-23T07:21:21.763Z,2178.00
2023-05-23T07:22:21.772Z,2176.00
2023-05-23T07:23:21.829Z,2176.00
2023-05-23T07:24:22.855Z,2179.00
2023-05-23T07:25:20.819Z,2179.00
2023-05-23T07:26:21.791Z,2179.00
2023-05-23T07:27:21.790Z,2177.00
2023-05-23T07:28:20.781Z,2179.00
2023-05-23T07:29:21.919Z,2178.00
2023-05-23T07:30:21.781Z,2175.00
2023-05-23T07:31:21.892Z,2174.00
2023-05-23T07:32:21.770Z,2178.00
2023-05-23T07:33:21.786Z,2174.00
2023-05-23T07:34:21.745Z,2179.00
2023-05-23T07:35:21.755Z,2177.00
2023-05-23T07:36:21.748Z,2174.00
2023-05-23T07:37:21.748Z,2171.00
2023-05-23T07:38:21.743Z,2172.00
2023-05-23T07:39:20.727Z,2168.00
2023-05-23T07:40:20.725Z,2165.00
2023-05-23T07:41:20.733Z,2159.00
2023-05-23T07:42:21.694Z,2154.00
2023-05-23T07:43:21.697Z,2151.00
2023-05-23T07:44:24.655Z,2148.00
2023-05-23T07:45:21.691Z,2145.00
2023-05-23T07:46:21.717Z,2142.00
2023-05-23T07:47:21.747Z,2143.00
2023-05-23T07:48:22.109Z,2137.00
2023-05-23T07:49:21.671Z,2146.00
2023-05-23T07:50:21.660Z,2145.00
2023-05-23T07:51:21.660Z,2143.00
2023-05-23T07:52:20.639Z,2141.00
2023-05-23T07:53:22.098Z,2143.00
2023-05-23T07:54:21.638Z,2140.00
2023-05-23T07:55:21.609Z,2139.00
2023-05-23T07:56:20.621Z,2134.00
2023-05-23T07:57:20.609Z,2127.00
2023-05-23T07:58:20.596Z,2128.00
2023-05-23T07:59:20.582Z,2130.00
2023-05-23T08:00:21.586Z,2133.00
2023-05-23T08:01:20.600Z,2129.00
2023-05-23T08:02:20.630Z,2128.00
2023-05-23T08:03:21.630Z,2125.00
2023-05-23T08:04:21.599Z,2123.00
2023-05-23T08:05:21.537Z,2125.00
2023-05-23T08:06:20.532Z,2121.00
2023-05-23T08:07:21.539Z,2117.00
2023-05-23T08:08:21.523Z,2116.00
2023-05-23T08:09:21.532Z,2116.00
2023-05-23T08:10:21.538Z,2118.00
2023-05-23T08:11:20.524Z,2119.00
2023-05-23T08:12:20.564Z,2119.00
2023-05-23T08:13:21.577Z,2120.00
2023-05-23T08:14:20.573Z,2118.00
2023-05-23T08:15:21.592Z,2116.00
2023-05-23T08:16:21.703Z,2116.00
2023-05-23T08:17:20.840Z,2110.00
2023-05-23T08:18:21.744Z,2111.00
2023-05-23T08:19:21.784Z,2110.00
2023-05-23T08:20:21.775Z,2112.00
2023-05-23T08:21:20.800Z,2112.00
2023-05-23T08:22:21.830Z,2108.00
2023-05-23T08:23:20.867Z,2106.00
2023-05-23T08:24:20.872Z,2109.00
2023-05-23T08:25:21.896Z,2111.00
2023-05-23T08:26:20.931Z,2112.00
2023-05-23T08:27:20.936Z,2114.00
2023-05-23T08:28:21.984Z,2114.00
2023-05-23T08:29:22.031Z,2112.00
2023-05-23T08:30:22.090Z,2108.00
2023-05-23T08:31:22.104Z,2107.00
2023-05-23T08:32:22.271Z,2105.00
2023-05-23T08:33:21.260Z,2104.00
2023-05-23T08:34:22.221Z,2104.00
2023-05-23T08:35:21.250Z,2105.00
2023-05-23T08:36:22.292Z,2102.00
2023-05-23T08:37:22.330Z,2106.00
2023-05-23T08:38:22.352Z,2106.00
2023-05-23T08:39:22.385Z,2103.00
2023-05-23T08:40:21.603Z,2101.00
2023-05-23T08:41:22.469Z,2106.00
2023-05-23T08:42:22.515Z,2103.00
2023-05-23T08:43:22.627Z,2158.00
2023-05-23T08:44:22.110Z,2159.00
2023-05-23T08:45:21.607Z,2151.00
2023-05-23T08:46:22.644Z,2141.00
2023-05-23T08:47:21.643Z,2142.00
2023-05-23T08:48:22.650Z,2142.00
2023-05-23T08:49:22.699Z,2153.00
2023-05-23T08:50:23.420Z,2261.00
2023-05-23T08:51:22.629Z,2260.00
2023-05-23T08:52:22.646Z,2263.00
2023-05-23T08:53:22.719Z,2250.00
2023-05-23T08:54:22.653Z,2364.00
2023-05-23T08:55:22.684Z,2289.00
2023-05-23T08:56:22.672Z,2349.00
2023-05-23T08:57:21.702Z,2362.00
2023-05-23T08:58:22.131Z,2370.00
2023-05-23T08:59:22.730Z,2370.00
2023-05-23T09:00:22.732Z,2377.00
2023-05-23T09:01:22.772Z,2384.00
2023-05-23T09:02:22.826Z,2384.00
2023-05-23T09:03:21.719Z,2384.00
2023-05-23T09:04:21.733Z,2383.00
2023-05-23T09:05:21.808Z,2384.00
2023-05-23T09:06:22.730Z,2381.00
2023-05-23T09:07:22.752Z,2382.00
2023-05-23T09:08:22.749Z,2382.00
2023-05-23T09:09:21.740Z,2382.00
2023-05-23T09:10:21.740Z,2378.00
2023-05-23T09:11:22.727Z,2374.00
2023-05-23T09:12:22.733Z,2369.00
2023-05-23T09:13:22.760Z,2368.00
2023-05-23T09:14:21.766Z,2366.00
2023-05-23T09:15:22.746Z,2367.00
2023-05-23T09:16:22.924Z,2368.00
2023-05-23T09:17:21.812Z,2370.00
2023-05-23T09:18:21.794Z,2366.00
2023-05-23T09:19:22.846Z,2364.00
2023-05-23T09:20:21.839Z,2361.00
2023-05-23T09:21:22.841Z,2360.00
2023-05-23T09:22:22.821Z,2355.00
2023-05-23T09:23:22.839Z,2352.00
2023-05-23T09:24:21.861Z,2351.00
2023-05-23T09:25:22.866Z,2357.00
2023-05-23T09:26:22.877Z,2358.00
2023-05-23T09:27:22.887Z,2354.00
2023-05-23T09:28:22.888Z,2350.00
2023-05-23T09:29:22.902Z,2346.00
2023-05-23T09:30:22.904Z,2342.00
2023-05-23T09:31:22.976Z,2341.00
2023-05-23T09:32:22.073Z,2341.00
2023-05-23T09:33:22.975Z,2344.00
2023-05-23T09:34:21.962Z,2339.00
2023-05-23T09:35:21.973Z,2339.00
2023-05-23T09:36:21.999Z,2340.00
2023-05-23T09:37:23.025Z,2341.00
2023-05-23T09:38:22.047Z,2343.00
2023-05-23T09:39:23.036Z,2345.00
2023-05-23T09:40:23.431Z,2343.00
2023-05-23T09:41:22.041Z,2338.00
2023-05-23T09:42:23.111Z,2342.00
2023-05-23T09:43:22.091Z,2343.00
2023-05-23T09:44:22.110Z,2346.00
2023-05-23T09:45:22.125Z,2348.00
2023-05-23T09:46:23.276Z,2352.00
2023-05-23T09:47:22.292Z,2348.00
2023-05-23T09:48:23.653Z,2337.00
2023-05-23T09:49:23.178Z,2330.00
2023-05-23T09:50:22.178Z,2335.00
2023-05-23T09:51:23.211Z,2331.00
2023-05-23T09:52:23.195Z,2323.00
2023-05-23T09:53:23.209Z,2322.00
2023-05-23T09:54:22.145Z,2330.00
2023-05-23T09:55:23.167Z,2330.00
2023-05-23T09:56:23.146Z,2331.00
2023-05-23T09:57:23.148Z,2332.00
2023-05-23T09:58:23.146Z,2327.00
2023-05-23T09:59:23.149Z,2326.00
2023-05-23T10:00:23.161Z,2325.00
2023-05-23T10:01:23.208Z,2329.00
2023-05-23T10:02:28.662Z,2327.00
2023-05-23T10:03:22.124Z,2326.00
2023-05-23T10:04:23.165Z,2332.00
2023-05-23T10:05:23.121Z,2336.00
2023-05-23T10:06:23.126Z,2341.00
2023-05-23T10:07:23.173Z,2346.00
2023-05-23T10:08:22.125Z,2348.00
2023-05-23T10:09:23.136Z,2347.00
2023-05-23T10:10:23.090Z,2349.00
2023-05-23T10:11:23.090Z,2347.00
2023-05-23T10:12:23.091Z,2347.00
2023-05-23T10:13:22.085Z,2346.00
2023-05-23T10:14:22.073Z,2344.00
2023-05-23T10:15:23.086Z,2340.00
2023-05-23T10:16:23.061Z,2339.00
2023-05-23T10:17:23.083Z,2344.00
2023-05-23T10:18:22.037Z,2344.00
2023-05-23T10:19:22.080Z,2350.00
2023-05-23T10:20:23.049Z,2348.00
2023-05-23T10:21:23.035Z,2345.00
2023-05-23T10:22:23.028Z,2344.00
2023-05-23T10:23:22.022Z,2343.00
2023-05-23T10:24:23.001Z,2344.00
2023-05-23T10:25:22.020Z,2340.00
2023-05-23T10:26:22.988Z,2338.00
2023-05-23T10:27:22.981Z,2338.00
2023-05-23T10:28:27.152Z,2340.00
2023-05-23T10:29:22.957Z,2340.00
2023-05-23T10:30:22.949Z,2338.00
2023-05-23T10:31:22.998Z,2339.00
2023-05-23T10:32:22.998Z,2341.00
2023-05-23T10:33:21.987Z,2337.00
2023-05-23T10:34:22.987Z,2336.00
2023-05-23T10:35:23.019Z,2333.00
2023-05-23T10:36:23.021Z,2331.00
2023-05-23T10:37:23.033Z,2329.00
2023-05-23T10:38:22.030Z,2326.00
2023-05-23T10:39:22.016Z,2328.00
2023-05-23T10:40:22.998Z,2329.00
2023-05-23T10:41:23.036Z,2329.00
2023-05-23T10:42:23.019Z,2332.00
2023-05-23T10:43:23.166Z,2331.00
2023-05-23T10:44:23.086Z,2332.00
2023-05-23T10:45:22.159Z,2347.00
2023-05-23T10:46:22.338Z,2269.00
2023-05-23T10:47:22.301Z,2293.00
2023-05-23T10:48:22.318Z,2314.00
2023-05-23T10:49:22.349Z,2323.00
2023-05-23T10:50:24.162Z,2321.00
2023-05-23T10:51:22.473Z,2327.00
2023-05-23T10:52:22.534Z,2325.00
2023-05-23T10:53:22.587Z,2326.00
2023-05-23T10:54:22.641Z,2330.00
2023-05-23T10:55:23.687Z,2331.00
2023-05-23T10:56:22.735Z,2330.00
2023-05-23T10:57:23.870Z,2326.00
2023-05-23T10:58:23.826Z,2323.00
2023-05-23T10:59:23.895Z,2326.00
2023-05-23T11:00:23.930Z,2325.00
2023-05-23T11:01:24.226Z,2325.00
2023-05-23T11:02:24.099Z,2324.00
2023-05-23T11:03:23.110Z,2324.00
2023-05-23T11:04:23.176Z,2324.00
2023-05-23T11:05:23.292Z,2326.00
2023-05-23T11:06:23.187Z,2322.00
2023-05-23T11:07:23.219Z,2322.00
2023-05-23T11:08:29.574Z,2322.00
2023-05-23T11:09:24.277Z,2320.00
2023-05-23T11:10:24.247Z,2313.00
2023-05-23T11:11:24.242Z,2309.00
2023-05-23T11:12:23.212Z,2307.00
2023-05-23T11:13:23.260Z,2306.00
2023-05-23T11:14:24.211Z,2307.00
2023-05-23T11:15:24.194Z,2308.00
2023-05-23T11:16:23.299Z,2300.00
2023-05-23T11:17:24.283Z,2299.00
2023-05-23T11:18:24.187Z,2297.00
2023-05-23T11:19:24.222Z,2296.00
2023-05-23T11:20:24.165Z,2296.00
2023-05-23T11:21:23.158Z,2293.00
2023-05-23T11:22:24.148Z,2291.00
2023-05-23T11:23:24.227Z,2290.00
2023-05-23T11:24:23.168Z,2289.00
2023-05-23T11:25:23.139Z,2287.00
2023-05-23T11:26:23.130Z,2283.00
2023-05-23T11:27:24.114Z,2284.00
2023-05-23T11:28:24.127Z,2281.00
2023-05-23T11:29:23.133Z,2279.00
2023-05-23T11:30:24.093Z,2280.00
2023-05-23T11:31:24.121Z,2277.00
2023-05-23T11:32:23.142Z,2279.00
2023-05-23T11:33:23.102Z,2276.00
2023-05-23T11:34:24.070Z,2280.00
2023-05-23T11:35:24.079Z,2285.00
2023-05-23T11:36:23.085Z,2280.00
2023-05-23T11:37:25.935Z,2277.00
2023-05-23T11:38:24.182Z,2276.00
2023-05-23T11:39:24.109Z,2270.00
2023-05-23T11:40:23.040Z,2265.00
2023-05-23T11:41:23.036Z,2263.00
2023-05-23T11:42:24.032Z,2264.00
2023-05-23T11:43:23.031Z,2263.00
2023-05-23T11:44:24.017Z,2262.00
2023-05-23T11:45:23.033Z,2258.00
2023-05-23T11:46:23.028Z,2259.00
2023-05-23T11:47:24.080Z,2257.00
2023-05-23T11:48:23.008Z,2257.00
2023-05-23T11:49:23.992Z,2256.00
2023-05-23T11:50:22.970Z,2253.00
2023-05-23T11:51:22.984Z,2253.00
2023-05-23T11:52:22.961Z,2251.00
2023-05-23T11:53:23.986Z,2251.00
2023-05-23T11:54:23.963Z,2248.00
2023-05-23T11:55:22.962Z,2247.00
2023-05-23T11:56:22.944Z,2245.00
2023-05-23T11:57:23.924Z,2240.00
2023-05-23T11:58:23.950Z,2238.00
2023-05-23T11:59:23.922Z,2236.00
2023-05-23T12:00:23.927Z,2232.00
2023-05-23T12:01:23.031Z,2228.00
2023-05-23T12:02:23.924Z,2226.00
2023-05-23T12:03:24.104Z,2226.00
2023-05-23T12:04:24.064Z,2222.00
2023-05-23T12:05:22.870Z,2224.00
2023-05-23T12:06:22.883Z,2227.00
2023-05-23T12:07:23.902Z,2226.00
2023-05-23T12:08:22.863Z,2223.00
2023-05-23T12:09:23.848Z,2220.00
2023-05-23T12:10:22.845Z,2218.00
2023-05-23T12:11:23.859Z,2219.00
2023-05-23T12:12:23.823Z,2219.00
2023-05-23T12:13:23.827Z,2217.00
2023-05-23T12:14:23.823Z,2209.00
2023-05-23T12:15:22.822Z,2199.00
2023-05-23T12:16:22.814Z,2183.00